Time;durP1;ratioP1;P1;durP2;ratioP2;P2;SDS_P1;SDS_P2;PMS_P1;PMS_P2;Temp;Humidity;BMP_temperature;BMP_pressure;BME280_temperature;BME280_humidity;BME280_pressure;Samples;Min_cycle;Max_cycle;Signal;HPM_P1;HPM_P2
2022/04/09 00:01:00;;;;;;;14.83;12.47;;;5.10;1.00;5.50;98945.00;;;;5100842;28;20454;-83
2022/04/09 00:03:29;;;;;;;17.80;12.60;;;5.10;1.00;5.50;67476.00;;;;5099757;28;20453;-82
2022/04/09 00:05:57;;;;;;;14.30;11.73;;;5.10;1.00;5.50;98960.00;;;;5099305;28;20506;-84
2022/04/09 00:08:25;;;;;;;17.50;12.80;;;5.10;1.00;5.60;67487.00;;;;5098410;28;20606;-84
2022/04/09 00:10:56;;;;;;;17.30;12.70;;;5.20;1.00;5.60;98969.00;;;;5098934;28;20483;-82
2022/04/09 00:13:24;;;;;;;19.30;13.90;;;5.20;1.00;5.60;98969.00;;;;5114736;27;20544;-81
2022/04/09 00:15:53;;;;;;;16.97;13.87;;;5.20;1.00;5.60;98968.00;;;;5099769;28;20453;-80
2022/04/09 00:18:22;;;;;;;16.90;13.27;;;5.20;1.00;5.60;98972.00;;;;5098262;28;20466;-81
2022/04/09 00:20:50;;;;;;;15.70;13.60;;;5.30;1.00;5.70;98987.00;;;;5100273;28;20555;-82
2022/04/09 00:23:19;;;;;;;17.63;14.90;;;5.40;1.00;5.80;98989.00;;;;5118021;28;20445;-81
2022/04/09 00:25:47;;;;;;;18.13;15.47;;;5.50;1.00;5.90;67556.00;;;;5102708;28;20528;-82
2022/04/09 00:28:17;;;;;;;20.33;16.90;;;5.50;1.00;217.30;159197.00;;;;5097750;28;20474;-82
2022/04/09 00:30:45;;;;;;;18.80;15.90;;;5.50;1.00;5.90;98997.00;;;;5084142;28;20826;-82
2022/04/09 00:33:14;;;;;;;18.80;16.30;;;5.60;1.00;5.80;67555.00;;;;5095043;28;20458;-83
2022/04/09 00:35:42;;;;;;;25.20;17.33;;;5.60;1.00;5.90;99010.00;;;;5100706;28;20534;-83
2022/04/09 00:38:11;;;;;;;19.20;16.63;;;5.90;1.00;5.90;67573.00;;;;5100450;28;20848;-82
2022/04/09 00:40:40;;;;;;;20.23;16.97;;;5.70;1.00;6.00;67595.00;;;;5098924;28;20473;-82
2022/04/09 00:43:08;;;;;;;20.57;16.40;;;5.70;1.00;6.00;99044.00;;;;5098313;28;20838;-82
2022/04/09 00:45:38;;;;;;;19.63;16.73;;;6.00;1.00;6.00;99043.00;;;;5103942;28;20461;-83
2022/04/09 00:48:09;;;;;;;20.50;17.37;;;5.70;1.00;6.00;99035.00;;;;5097157;28;20501;-83
2022/04/09 00:50:37;;;;;;;21.03;17.40;;;5.60;1.00;6.00;99047.00;;;;5094739;28;20456;-82
2022/04/09 00:53:08;;;;;;;21.93;16.87;;;5.60;1.00;5.90;99052.00;;;;5096935;28;20464;-82
2022/04/09 00:58:24;;;;;;;22.03;18.10;;;5.50;1.00;5.90;99089.00;;;;5094866;28;20553;-82
2022/04/09 01:00:54;;;;;;;23.57;19.73;;;5.50;1.00;5.80;99087.00;;;;5101677;28;20969;-81
2022/04/09 01:03:23;;;;;;;22.43;19.07;;;5.50;1.00;5.90;99103.00;;;;5124046;28;20449;-83
2022/04/09 01:05:52;;;;;;;21.67;18.07;;;5.50;1.00;5.80;99105.00;;;;5118981;28;20465;-83
2022/04/09 01:08:20;;;;;;;25.50;20.37;;;5.50;1.00;5.80;99112.00;;;;5108724;28;20477;-81
2022/04/09 01:10:51;;;;;;;25.37;18.93;;;5.40;1.00;5.80;99123.00;;;;5099412;28;20985;-82
2022/04/09 01:13:22;;;;;;;22.80;18.80;;;5.40;1.00;5.80;99138.00;;;;5102935;28;21048;-82
2022/04/09 01:15:51;;;;;;;24.90;18.67;;;5.40;1.00;5.70;99135.00;;;;5116817;28;20461;-82
2022/04/09 01:18:22;;;;;;;20.33;18.03;;;5.40;1.00;5.70;99149.00;;;;5121550;28;20474;-82
2022/04/09 01:21:06;;;;;;;21.40;18.40;;;5.40;1.00;5.70;99157.00;;;;5121128;28;21013;-82
2022/04/09 01:23:36;;;;;;;18.50;16.60;;;5.40;1.00;5.70;99168.00;;;;5137825;27;20977;-82
2022/04/09 01:26:07;;;;;;;22.70;18.30;;;5.40;1.00;5.60;99172.00;;;;5111808;28;21040;-82
2022/04/09 01:28:39;;;;;;;16.50;14.30;;;5.30;1.00;5.50;99183.00;;;;5119121;28;20556;-82
2022/04/09 01:31:07;;;;;;;18.67;16.10;;;5.20;1.00;5.50;99189.00;;;;5112354;28;20477;-83
2022/04/09 01:33:37;;;;;;;15.70;13.30;;;5.20;1.00;5.40;99195.00;;;;5105908;28;20454;-81
2022/04/09 01:36:06;;;;;;;17.37;14.27;;;5.10;1.00;5.40;99196.00;;;;5100056;28;20415;-82
2022/04/09 01:38:36;;;;;;;15.27;11.70;;;5.10;1.00;5.30;99209.00;;;;5139683;28;20487;-83
2022/04/09 01:41:06;;;;;;;15.27;13.47;;;5.00;1.00;5.20;99197.00;;;;5142798;27;20477;-83
2022/04/09 01:43:41;;;;;;;15.13;12.77;;;4.90;1.00;5.30;99213.00;;;;5129245;28;20437;-83
2022/04/09 01:46:11;;;;;;;15.70;12.40;;;4.90;1.00;5.20;99210.00;;;;5131637;28;20415;-83
2022/04/09 01:48:41;;;;;;;11.33;9.93;;;4.90;1.00;5.00;99234.00;;;;5127532;28;20496;-82
2022/04/09 01:51:10;;;;;;;13.40;10.60;;;4.70;1.00;5.10;99236.00;;;;5123025;28;20450;-82
2022/04/09 01:53:39;;;;;;;10.67;9.50;;;4.60;1.00;52.70;158816.00;;;;5128410;28;20471;-82
2022/04/09 01:56:08;;;;;;;16.20;9.17;;;4.60;1.00;4.90;99257.00;;;;5129702;28;20448;-82
2022/04/09 01:58:39;;;;;;;12.10;9.10;;;4.50;1.00;5.00;99257.00;;;;5110083;28;20537;-81
2022/04/09 02:01:07;;;;;;;22.50;12.47;;;4.60;1.00;5.00;99268.00;;;;5112647;28;20485;-83
2022/04/09 02:03:36;;;;;;;18.20;13.13;;;4.60;1.00;5.00;99275.00;;;;5122223;27;20503;-82
2022/04/09 02:06:05;;;;;;;35.00;24.00;;;4.60;1.00;5.00;99280.00;;;;5123194;27;20457;-84
2022/04/09 02:08:34;;;;;;;28.93;19.70;;;4.90;1.00;5.00;99280.00;;;;5108484;28;20525;-83
2022/04/09 02:11:06;;;;;;;14.80;12.30;;;4.60;1.00;5.00;99286.00;;;;5127032;27;20520;-84
2022/04/09 02:13:36;;;;;;;12.20;9.60;;;4.60;1.00;5.00;99291.00;;;;5112218;28;20532;-81
2022/04/09 02:16:05;;;;;;;12.33;7.50;;;4.60;1.00;4.90;99287.00;;;;5126993;27;20489;-82
2022/04/09 02:18:33;;;;;;;11.03;6.63;;;4.60;1.00;5.10;99300.00;;;;5130036;27;20481;-83
2022/04/09 02:21:02;;;;;;;11.50;7.40;;;4.60;1.00;5.10;99307.00;;;;5118955;28;20618;-82
2022/04/09 02:23:30;;;;;;;10.50;7.10;;;4.90;1.00;5.10;99321.00;;;;5123831;28;20459;-82
2022/04/09 02:26:00;;;;;;;8.37;7.47;;;4.90;1.00;5.10;99322.00;;;;5111902;28;20526;-83
2022/04/09 02:28:32;;;;;;;9.57;6.63;;;4.70;1.00;5.10;99342.00;;;;5121178;28;20485;-83
2022/04/09 02:31:02;;;;;;;10.00;6.63;;;4.70;1.00;5.20;99333.00;;;;5124958;28;20453;-83
2022/04/09 02:33:38;;;;;;;9.70;6.63;;;4.80;1.00;5.30;99337.00;;;;5134806;28;20446;-83
2022/04/09 02:36:10;;;;;;;8.63;6.63;;;4.90;1.00;5.20;99348.00;;;;5119381;28;20434;-84
2022/04/09 02:38:39;;;;;;;8.00;7.20;;;4.90;1.00;5.30;99353.00;;;;5129660;27;20486;-83
2022/04/09 02:41:09;;;;;;;7.63;6.63;;;5.20;1.00;5.30;99362.00;;;;5120754;28;20454;-83
2022/04/09 02:43:40;;;;;;;9.63;6.87;;;5.00;1.00;5.30;99370.00;;;;5117684;28;20780;-84
2022/04/09 02:46:08;;;;;;;10.10;7.37;;;5.00;1.00;5.40;99385.00;;;;5105942;28;20965;-82
2022/04/09 02:48:40;;;;;;;7.93;6.60;;;5.10;1.00;5.50;99389.00;;;;5099060;28;20478;-82
2022/04/09 02:51:09;;;;;;;8.83;7.93;;;5.20;1.00;5.60;99397.00;;;;5103509;28;20447;-82
2022/04/09 02:53:37;;;;;;;10.23;9.13;;;5.30;1.00;5.60;99395.00;;;;5116182;27;20563;-82
2022/04/09 02:56:06;;;;;;;13.00;9.83;;;5.40;1.00;5.70;99415.00;;;;5099890;28;20453;-84
2022/04/09 02:58:39;;;;;;;10.83;9.60;;;5.50;1.00;5.80;99414.00;;;;5115738;27;21213;-83
2022/04/09 03:01:08;;;;;;;13.60;9.93;;;5.50;1.00;5.80;99420.00;;;;5115814;27;20509;-82
2022/04/09 03:03:37;;;;;;;12.87;11.03;;;5.50;1.00;5.70;99417.00;;;;5099624;28;20556;-82
2022/04/09 03:06:05;;;;;;;13.30;11.43;;;5.50;1.00;5.70;99415.00;;;;5103059;28;20515;-82
2022/04/09 03:08:34;;;;;;;16.17;11.10;;;5.40;1.00;5.50;99427.00;;;;5098431;28;20465;-82
2022/04/09 03:11:02;;;;;;;12.93;10.67;;;5.30;1.00;5.60;99441.00;;;;5116576;27;20450;-82
2022/04/09 03:13:31;;;;;;;16.00;12.30;;;5.20;1.00;5.50;99434.00;;;;5100695;28;20881;-82
2022/04/09 03:16:00;;;;;;;14.13;11.10;;;5.20;1.00;5.60;99448.00;;;;5095976;28;21042;-82
2022/04/09 03:18:29;;;;;;;20.10;11.93;;;5.20;1.00;5.40;99443.00;;;;5101299;28;20470;-82
2022/04/09 03:20:57;;;;;;;14.23;11.67;;;5.10;1.00;5.40;99448.00;;;;5083983;28;20480;-82
2022/04/09 03:23:26;;;;;;;15.17;10.37;;;5.20;1.00;5.40;99453.00;;;;5097986;28;20504;-82
2022/04/09 03:25:58;;;;;;;13.30;11.13;;;5.10;1.00;5.40;99459.00;;;;5100038;28;20447;-82
2022/04/09 03:28:36;;;;;;;15.87;10.80;;;5.00;1.00;5.30;99459.00;;;;5102591;28;20590;-82
2022/04/09 03:31:05;;;;;;;14.40;10.70;;;5.10;1.00;5.40;99474.00;;;;5117008;28;20482;-82
2022/04/09 03:33:35;;;;;;;15.23;11.63;;;5.00;1.00;5.40;99481.00;;;;5135421;27;20429;-82
2022/04/09 03:36:08;;;;;;;13.40;10.03;;;5.00;1.00;52.70;159018.00;;;;5107589;28;20477;-82
2022/04/09 03:38:37;;;;;;;14.00;10.53;;;5.00;1.00;5.50;99501.00;;;;5105708;28;20772;-82
2022/04/09 03:41:06;;;;;;;14.50;10.00;;;5.10;1.00;5.50;99487.00;;;;5118649;27;20541;-82
2022/04/09 03:43:52;;;;;;;16.63;11.00;;;5.10;1.00;5.50;99495.00;;;;5101978;28;20539;-82
2022/04/09 03:46:28;;;;;;;18.13;9.47;;;5.20;1.00;5.60;99509.00;;;;5102107;28;20981;-82
2022/04/09 03:48:59;;;;;;;10.03;8.53;;;5.20;1.00;5.50;99512.00;;;;5097430;28;20453;-83
2022/04/09 03:51:28;;;;;;;13.80;8.67;;;5.30;1.00;5.50;99516.00;;;;5096392;28;20499;-83
2022/04/09 03:53:57;;;;;;;13.00;8.10;;;5.20;1.00;5.50;99510.00;;;;5097518;28;20489;-83
2022/04/09 03:56:27;;;;;;;12.33;8.00;;;5.20;1.00;5.40;99510.00;;;;5098727;28;20511;-81
2022/04/09 03:58:56;;;;;;;10.73;7.00;;;5.00;1.00;5.40;99528.00;;;;5099098;28;20562;-83
2022/04/09 04:01:27;;;;;;;13.83;8.50;;;5.00;1.00;5.40;99531.00;;;;5115950;27;20461;-85
2022/04/09 04:03:59;;;;;;;11.63;7.90;;;5.00;1.00;5.40;99552.00;;;;5097943;28;20507;-84
2022/04/09 04:06:29;;;;;;;8.73;7.30;;;5.10;1.00;5.50;99538.00;;;;5100365;27;20450;-85
2022/04/09 04:08:59;;;;;;;11.60;8.43;;;5.20;1.00;5.60;99549.00;;;;5102366;28;20454;-84
2022/04/09 04:11:28;;;;;;;10.90;7.80;;;5.30;1.00;5.70;67506.00;;;;5103760;28;20457;-82
2022/04/09 04:13:56;;;;;;;15.43;9.07;;;5.40;1.00;5.70;99553.00;;;;5081218;28;20994;-82
2022/04/09 04:16:25;;;;;;;13.40;9.40;;;5.40;1.00;5.80;67539.00;;;;5096089;28;20462;-83
2022/04/09 04:18:54;;;;;;;13.33;10.17;;;5.50;1.00;5.80;99568.00;;;;5115970;27;20466;-83
2022/04/09 04:21:24;;;;;;;13.77;10.60;;;5.40;1.00;5.80;99568.00;;;;5112126;27;20473;-83
2022/04/09 04:24:00;;;;;;;16.03;11.13;;;5.40;1.00;5.80;99583.00;;;;5096605;28;20576;-82
2022/04/09 04:26:29;;;;;;;18.20;11.07;;;5.50;1.00;5.90;99578.00;;;;5083229;28;20450;-82
2022/04/09 04:29:03;;;;;;;13.43;10.87;;;5.80;1.00;5.90;99594.00;;;;5100011;28;20465;-82
2022/04/09 04:31:34;;;;;;;15.20;10.17;;;5.60;1.00;6.00;99585.00;;;;5097749;28;20460;-82
2022/04/09 04:34:04;;;;;;;11.57;9.37;;;5.60;1.00;6.00;99486.00;;;;5099281;28;20485;-82
2022/04/09 04:36:39;;;;;;;13.13;9.80;;;5.60;1.00;5.90;99594.00;;;;5100487;28;20463;-82
2022/04/09 04:39:08;;;;;;;12.87;9.87;;;5.50;1.00;5.90;99599.00;;;;5097702;28;20965;-82
2022/04/09 04:41:36;;;;;;;15.20;8.27;;;5.50;1.00;5.80;99612.00;;;;5100110;28;20481;-82
2022/04/09 04:44:06;;;;;;;13.00;7.90;;;5.50;1.00;5.80;99613.00;;;;5099807;28;20485;-82
2022/04/09 04:46:41;;;;;;;8.90;7.03;;;5.40;1.00;5.80;99626.00;;;;5113014;28;20449;-81
2022/04/09 04:49:14;;;;;;;15.93;8.13;;;5.50;1.00;5.80;99637.00;;;;5116728;28;20456;-81
2022/04/09 04:51:45;;;;;;;16.93;7.63;;;5.50;1.00;5.80;99629.00;;;;5099413;28;20454;-82
2022/04/09 04:54:14;;;;;;;10.93;6.33;;;5.50;1.00;5.80;99649.00;;;;5093912;28;20434;-81
2022/04/09 04:56:45;;;;;;;12.63;6.90;;;5.40;1.00;5.80;99645.00;;;;5126992;27;20445;-81
2022/04/09 04:59:15;;;;;;;10.53;5.80;;;5.40;1.00;5.80;99640.00;;;;5113189;28;20445;-82
2022/04/09 05:01:43;;;;;;;11.33;5.63;;;5.40;1.00;5.80;99645.00;;;;5105921;28;20470;-82
2022/04/09 05:04:12;;;;;;;10.90;4.57;;;5.40;1.00;5.80;99657.00;;;;5106077;28;20450;-83
2022/04/09 05:06:50;;;;;;;8.50;6.10;;;5.30;1.00;5.80;99660.00;;;;5105799;28;20524;-82
2022/04/09 05:09:21;;;;;;;14.17;6.37;;;5.30;1.00;5.80;99667.00;;;;5118272;27;20468;-84
2022/04/09 05:11:56;;;;;;;12.07;5.60;;;5.40;1.00;5.80;99659.00;;;;5102267;28;20977;-82
2022/04/09 05:14:33;;;;;;;9.87;5.67;;;5.40;1.00;5.90;99667.00;;;;5116219;27;20442;-83
2022/04/09 05:17:05;;;;;;;10.10;5.67;;;5.50;1.00;5.90;99679.00;;;;5103405;28;20461;-82
2022/04/09 05:19:36;;;;;;;10.97;5.30;;;5.50;1.00;5.90;99675.00;;;;5105140;28;20425;-81
2022/04/09 05:22:11;;;;;;;9.13;5.20;;;5.50;1.00;6.00;99686.00;;;;5102502;28;20497;-82
2022/04/09 05:24:52;;;;;;;9.53;4.57;;;5.60;1.00;52.70;159274.00;;;;5102846;28;20555;-82
2022/04/09 05:27:22;;;;;;;7.17;4.30;;;5.50;1.00;6.00;99707.00;;;;5101890;28;20478;-81
2022/04/09 05:29:51;;;;;;;10.80;4.70;;;5.60;1.00;6.00;99712.00;;;;5105953;28;20465;-82
2022/04/09 05:32:21;;;;;;;8.60;4.13;;;5.70;1.00;217.30;159294.00;;;;5105148;28;20452;-83
2022/04/09 05:34:49;;;;;;;13.30;5.70;;;5.40;1.00;6.10;99712.00;;;;5107285;28;20455;-83
2022/04/09 05:37:20;;;;;;;11.67;4.97;;;5.70;1.00;6.20;99722.00;;;;5110113;27;20469;-82
2022/04/09 05:39:49;;;;;;;13.33;4.70;;;6.10;1.00;6.40;99737.00;;;;5106152;28;20541;-83
2022/04/09 05:42:18;;;;;;;10.07;4.30;;;5.70;1.00;6.30;99736.00;;;;5113100;28;20488;-83
2022/04/09 05:44:46;;;;;;;10.40;5.17;;;5.90;1.00;6.30;99732.00;;;;5123354;28;20440;-85
2022/04/09 05:47:15;;;;;;;8.93;4.10;;;5.90;1.00;6.40;99740.00;;;;5112930;28;20470;-83
2022/04/09 05:49:43;;;;;;;10.10;4.90;;;6.00;1.00;6.40;99740.00;;;;5119387;28;20479;-85
2022/04/09 05:52:12;;;;;;;9.27;4.53;;;6.00;1.00;6.50;67696.00;;;;5119180;28;20491;-82
2022/04/09 05:54:43;;;;;;;10.43;5.23;;;6.00;1.00;6.40;99739.00;;;;5107347;28;20456;-83
2022/04/09 05:57:12;;;;;;;9.67;4.67;;;6.00;1.00;6.40;99763.00;;;;5107766;28;20481;-83
2022/04/09 05:59:42;;;;;;;9.10;5.40;;;6.00;1.00;217.30;159431.00;;;;5108258;28;20537;-84
2022/04/09 06:02:12;;;;;;;8.03;5.20;;;6.20;1.00;6.30;67657.00;;;;5106870;28;20486;-83
2022/04/09 06:04:41;;;;;;;13.43;5.63;;;5.90;1.00;6.30;99754.00;;;;5105982;28;20450;-82
2022/04/09 06:07:13;;;;;;;6.63;4.43;;;6.20;1.00;6.30;67654.00;;;;5112753;28;20477;-83
2022/04/09 06:09:52;;;;;;;8.60;4.30;;;5.90;1.00;52.70;159367.00;;;;5104180;28;20473;-83
2022/04/09 06:12:21;;;;;;;10.70;4.90;;;5.90;1.00;6.30;99784.00;;;;5118574;27;20644;-83
2022/04/09 06:14:57;;;;;;;6.53;3.37;;;5.90;1.00;6.30;99776.00;;;;5118906;27;20445;-83
2022/04/09 06:17:33;;;;;;;8.33;3.53;;;5.90;1.00;6.20;99789.00;;;;5100805;28;20468;-83
2022/04/09 06:20:01;;;;;;;10.10;4.10;;;5.80;1.00;6.20;99783.00;;;;5100182;28;20494;-86
2022/04/09 06:22:36;;;;;;;9.67;4.30;;;6.00;1.00;6.30;67648.00;;;;5109085;28;20493;-83
2022/04/09 06:25:09;;;;;;;12.00;4.40;;;5.90;1.00;217.30;159421.00;;;;5109493;28;20450;-84
2022/04/09 06:27:42;;;;;;;11.23;4.20;;;6.00;1.00;6.50;67702.00;;;;5110191;28;20519;-82
2022/04/09 06:30:14;;;;;;;10.37;4.30;;;6.30;1.00;6.80;99822.00;;;;5115106;28;20424;-81
2022/04/09 06:32:48;;;;;;;9.60;4.63;;;6.30;1.00;6.60;99827.00;;;;5119225;28;20434;-84
2022/04/09 06:35:17;;;;;;;10.90;4.67;;;6.20;1.00;6.60;99821.00;;;;5126763;28;20437;-83
2022/04/09 06:37:46;;;;;;;4.77;3.70;;;6.20;1.00;6.50;99819.00;;;;5124654;28;20466;-84
2022/04/09 06:40:18;;;;;;;9.33;4.93;;;6.10;1.00;6.40;99825.00;;;;5120301;28;20443;-84
2022/04/09 06:42:47;;;;;;;12.37;5.30;;;5.90;1.00;6.20;99826.00;;;;5125903;28;20476;-82
2022/04/09 06:45:38;;;;;;;11.10;4.87;;;5.80;1.00;6.20;99829.00;;;;5130596;28;20446;-84
2022/04/09 06:48:25;;;;;;;9.10;4.33;;;5.80;1.00;6.20;99836.00;;;;5130306;28;20526;-85
2022/04/09 06:51:12;;;;;;;7.13;4.47;;;5.70;1.00;6.20;99837.00;;;;5115091;28;20469;-85
2022/04/09 06:53:41;;;;;;;10.53;4.20;;;5.70;1.00;6.20;99843.00;;;;5107074;28;20457;-84
2022/04/09 06:56:11;;;;;;;9.80;4.17;;;5.70;1.00;6.20;99847.00;;;;5105954;28;20500;-85
2022/04/09 06:58:40;;;;;;;9.20;3.83;;;5.70;1.00;6.10;99851.00;;;;5110908;28;20465;-85
2022/04/09 07:01:09;;;;;;;7.30;3.77;;;5.70;1.00;6.20;67628.00;;;;5098882;28;20516;-85
2022/04/09 07:03:40;;;;;;;8.50;4.30;;;5.70;1.00;6.30;99856.00;;;;5101646;28;20470;-84
2022/04/09 07:06:10;;;;;;;12.63;5.27;;;5.80;1.00;6.40;99865.00;;;;5110465;28;20440;-86
2022/04/09 07:08:39;;;;;;;11.33;4.47;;;5.90;1.00;6.40;99869.00;;;;5123435;28;20462;-86
2022/04/09 07:11:36;;;;;;;9.17;4.40;;;6.00;1.00;6.50;99869.00;;;;5121681;28;20454;-85
2022/04/09 07:14:05;;;;;;;5.57;4.00;;;6.00;1.00;6.60;99873.00;;;;5117782;28;20459;-83
2022/04/09 07:16:33;;;;;;;11.60;4.10;;;6.10;1.00;52.70;159524.00;;;;5124460;27;20438;-83
2022/04/09 07:19:02;;;;;;;11.33;4.00;;;6.40;1.00;6.70;99877.00;;;;5106894;28;20994;-82
2022/04/09 07:21:31;;;;;;;10.57;4.23;;;6.40;1.00;52.70;159629.00;;;;5107975;28;20445;-82
2022/04/09 07:23:59;;;;;;;6.70;4.57;;;6.40;1.00;7.00;99889.00;;;;5106754;28;20869;-82
2022/04/09 07:26:27;;;;;;;11.60;5.17;;;6.60;1.00;7.00;99880.00;;;;5105653;28;20824;-82
2022/04/09 07:28:57;;;;;;;10.80;4.73;;;6.60;1.00;7.10;67818.00;;;;5110525;28;20475;-83
2022/04/09 07:31:25;;;;;;;7.30;3.77;;;6.90;1.00;7.20;99883.00;;;;5086645;28;20895;-82
2022/04/09 07:33:54;;;;;;;8.10;4.40;;;6.70;1.00;7.30;67866.00;;;;5107564;28;20449;-81
2022/04/09 07:36:22;;;;;;;6.50;3.90;;;6.80;1.00;7.30;67866.00;;;;5102271;28;20476;-82
2022/04/09 07:38:50;;;;;;;8.30;4.57;;;6.80;1.00;7.40;67888.00;;;;5120268;27;20465;-82
2022/04/09 07:41:19;;;;;;;10.83;5.23;;;7.00;1.00;7.50;67910.00;;;;5104042;28;20537;-81
2022/04/09 07:43:47;;;;;;;7.90;5.20;;;7.20;1.00;52.70;159919.00;;;;5104443;28;20548;-83
2022/04/09 07:46:17;;;;;;;14.00;4.40;;;7.10;1.00;7.60;99922.00;;;;5099873;28;20450;-83
2022/04/09 07:48:45;;;;;;;10.30;5.00;;;7.20;1.00;7.80;99910.00;;;;5119016;27;20473;-82
2022/04/09 07:51:14;;;;;;;10.37;4.43;;;7.50;1.00;7.70;99923.00;;;;5104125;28;20468;-83
2022/04/09 07:53:42;;;;;;;6.37;4.10;;;7.30;1.00;7.70;67958.00;;;;5105003;28;20861;-83
2022/04/09 07:56:10;;;;;;;6.80;4.00;;;7.30;1.00;7.80;99924.00;;;;5105070;28;20453;-84
2022/04/09 07:58:39;;;;;;;9.43;4.17;;;7.30;1.00;7.80;68002.00;;;;5104709;28;20498;-82
2022/04/09 08:01:07;;;;;;;10.00;4.73;;;7.40;1.00;7.90;99918.00;;;;5127243;27;20485;-82
2022/04/09 08:03:37;;;;;;;8.40;4.90;;;7.50;1.00;8.00;99922.00;;;;5121990;28;20454;-82
2022/04/09 08:06:05;;;;;;;11.23;4.67;;;7.60;1.00;8.20;99937.00;;;;5141844;27;20452;-80
2022/04/09 08:08:34;;;;;;;5.60;3.63;;;7.80;1.00;8.20;99931.00;;;;5128060;28;20461;-82
2022/04/09 08:11:02;;;;;;;6.80;4.23;;;7.80;1.00;8.20;99935.00;;;;5120398;28;20547;-81
2022/04/09 08:13:31;;;;;;;9.13;4.40;;;7.70;1.00;8.20;68076.00;;;;5102483;28;20450;-81
2022/04/09 08:15:59;;;;;;;11.53;4.77;;;7.90;1.00;8.30;99946.00;;;;5104151;28;20453;-82
2022/04/09 08:18:28;;;;;;;9.87;4.57;;;7.90;1.00;8.30;99954.00;;;;5104576;28;20553;-81
2022/04/09 08:21:05;;;;;;;8.00;4.43;;;7.90;1.00;8.50;99960.00;;;;5104552;28;21751;-81
2022/04/09 08:23:34;;;;;;;11.00;4.80;;;8.00;1.00;8.60;99963.00;;;;5102986;28;20465;-81
2022/04/09 08:26:02;;;;;;;9.70;4.40;;;8.40;1.00;8.80;99968.00;;;;5104731;28;20480;-82
2022/04/09 08:28:32;;;;;;;12.73;5.27;;;8.40;1.00;9.00;99964.00;;;;5104577;28;21224;-82
2022/04/09 08:31:00;;;;;;;9.77;4.83;;;8.60;1.00;9.20;99960.00;;;;5108554;28;20467;-82
2022/04/09 08:33:29;;;;;;;10.77;4.40;;;8.90;1.00;9.40;99968.00;;;;5111461;28;20449;-82
2022/04/09 08:35:57;;;;;;;9.20;4.10;;;9.00;1.00;9.60;99964.00;;;;5125287;28;20446;-81
2022/04/09 08:38:27;;;;;;;5.20;2.93;;;9.30;1.00;9.80;99975.00;;;;5111119;28;20484;-83
2022/04/09 08:40:57;;;;;;;7.70;2.90;;;9.50;1.00;9.90;99974.00;;;;5114601;28;20529;-82
2022/04/09 08:43:25;;;;;;;10.10;2.60;;;9.70;1.00;9.90;99979.00;;;;5109889;28;20450;-82
2022/04/09 08:45:54;;;;;;;7.47;2.70;;;9.80;1.00;9.80;99980.00;;;;5105500;28;20524;-82
2022/04/09 08:48:23;;;;;;;5.73;1.77;;;9.60;1.00;9.60;99974.00;;;;5108477;28;20974;-82
2022/04/09 08:50:53;;;;;;;8.83;2.20;;;9.50;1.00;9.60;99983.00;;;;5102933;28;20544;-83
2022/04/09 08:53:34;;;;;;;6.63;2.00;;;9.40;1.00;9.80;99985.00;;;;5100386;28;20457;-82
2022/04/09 08:56:02;;;;;;;5.23;1.80;;;9.80;1.00;9.80;99989.00;;;;5099317;28;20549;-82
2022/04/09 08:58:31;;;;;;;9.07;2.23;;;9.60;1.00;9.70;99992.00;;;;5104125;28;20537;-83
2022/04/09 09:01:00;;;;;;;6.20;1.90;;;9.60;1.00;9.90;99984.00;;;;5103423;28;20568;-81
2022/04/09 09:03:29;;;;;;;10.43;1.80;;;9.70;1.00;10.10;99982.00;;;;5106237;28;20480;-81
2022/04/09 09:05:57;;;;;;;3.77;1.63;;;9.90;1.00;10.20;99995.00;;;;5103789;28;20456;-82
2022/04/09 09:08:42;;;;;;;7.10;2.23;;;10.00;1.00;10.20;100007.00;;;;5104208;28;20479;-82
2022/04/09 09:11:10;;;;;;;7.07;2.40;;;10.00;1.00;10.20;100011.00;;;;5104798;28;20461;-83
2022/04/09 09:13:50;;;;;;;6.30;2.23;;;10.00;1.00;10.10;100019.00;;;;5119189;28;20455;-82
2022/04/09 09:16:27;;;;;;;10.40;2.33;;;9.90;1.00;10.00;100011.00;;;;5121607;28;20453;-81
2022/04/09 09:18:58;;;;;;;10.33;2.27;;;9.90;1.00;10.20;100015.00;;;;5122123;28;20572;-82
2022/04/09 09:21:27;;;;;;;6.20;2.07;;;10.00;1.00;10.40;100016.00;;;;5130869;28;20425;-83
2022/04/09 09:26:59;;;;;;;6.57;1.97;;;10.30;1.00;10.40;100030.00;;;;5097737;27;20559;-82
2022/04/09 09:29:29;;;;;;;4.90;1.73;;;10.10;1.00;10.40;100015.00;;;;5091002;28;20460;-81
2022/04/09 09:32:00;;;;;;;10.33;3.10;;;10.20;1.00;10.60;100028.00;;;;5089566;28;20450;-82
2022/04/09 09:34:29;;;;;;;6.53;2.10;;;10.30;1.00;11.00;100012.00;;;;5087773;28;20458;-75
2022/04/09 09:36:58;;;;;;;8.03;2.00;;;10.90;1.00;11.30;100012.00;;;;5101371;28;20474;-77
2022/04/09 09:39:27;;;;;;;13.47;2.73;;;11.10;1.00;11.80;100014.00;;;;5085737;28;20442;-77
2022/04/09 09:42:04;;;;;;;6.70;1.80;;;11.60;1.00;11.70;100017.00;;;;5086063;28;20446;-76
2022/04/09 09:44:34;;;;;;;7.30;2.27;;;11.80;1.00;11.80;100028.00;;;;5087331;28;20443;-78
2022/04/09 09:47:08;;;;;;;7.70;2.40;;;11.90;1.00;11.80;100012.00;;;;5085777;28;20494;-76
2022/04/09 09:49:41;;;;;;;8.00;2.37;;;11.90;1.00;11.90;100016.00;;;;5097802;28;20464;-82
2022/04/09 09:52:10;;;;;;;6.03;2.00;;;11.80;1.00;11.80;100025.00;;;;5109123;28;20510;-81
2022/04/09 09:54:55;;;;;;;7.83;1.93;;;11.70;1.00;12.00;100019.00;;;;5089703;28;20449;-81
2022/04/09 09:57:27;;;;;;;4.97;1.73;;;11.80;1.00;12.00;100032.00;;;;5091055;28;20484;-82
2022/04/09 09:59:58;;;;;;;6.90;2.00;;;11.90;1.00;12.00;100014.00;;;;5093659;28;20879;-81
2022/04/09 10:02:34;;;;;;;5.70;1.73;;;11.90;1.00;12.10;100023.00;;;;5096226;28;21029;-83
2022/04/09 10:05:03;;;;;;;4.87;2.30;;;12.00;1.00;11.90;100024.00;;;;5101820;28;20476;-81
2022/04/09 10:07:33;;;;;;;7.50;2.23;;;11.90;1.00;11.80;100020.00;;;;5099289;28;20545;-81
2022/04/09 10:10:02;;;;;;;6.73;1.50;;;11.70;1.00;11.60;100029.00;;;;5098631;28;20495;-81
2022/04/09 10:12:40;;;;;;;6.23;2.00;;;11.50;1.00;11.50;100024.00;;;;5093456;28;20451;-81
2022/04/09 10:15:10;;;;;;;6.80;2.10;;;11.50;1.00;11.70;100026.00;;;;5093179;28;20468;-81
2022/04/09 10:17:40;;;;;;;7.07;2.17;;;11.60;1.00;11.80;100031.00;;;;5088457;28;20514;-80
2022/04/09 10:20:11;;;;;;;6.53;2.10;;;11.70;1.00;11.90;100028.00;;;;5090551;28;20494;-81
2022/04/09 10:22:44;;;;;;;5.37;1.93;;;11.80;1.00;11.70;100038.00;;;;5092170;28;20450;-83
2022/04/09 10:25:16;;;;;;;6.00;1.97;;;11.70;1.00;11.40;100032.00;;;;5089862;28;20643;-82
2022/04/09 10:27:52;;;;;;;6.10;1.70;;;11.50;1.00;11.40;100022.00;;;;5090794;28;20478;-82
2022/04/09 10:30:24;;;;;;;7.07;1.53;;;11.30;1.00;11.50;100022.00;;;;5091719;28;20506;-82
2022/04/09 10:32:57;;;;;;;3.90;1.80;;;11.30;1.00;11.60;100039.00;;;;5092154;28;20474;-82
2022/04/09 10:35:28;;;;;;;4.07;1.63;;;11.30;1.00;11.50;100035.00;;;;5095488;28;20488;-80
2022/04/09 10:38:24;;;;;;;6.87;1.93;;;11.40;1.00;11.60;100023.00;;;;5087038;28;20505;-81
2022/04/09 10:41:27;;;;;;;5.27;1.77;;;11.40;1.00;11.80;100018.00;;;;5046881;28;20462;-81
2022/04/09 10:43:59;;;;;;;10.30;2.30;;;11.60;1.00;11.80;100017.00;;;;5089627;28;20462;-80
2022/04/09 10:46:38;;;;;;;4.03;1.50;;;11.60;1.00;11.80;100019.00;;;;5092594;28;20488;-82
2022/04/09 10:49:22;;;;;;;5.13;1.90;;;11.60;1.00;11.50;100032.00;;;;5090811;28;20439;-82
2022/04/09 10:52:19;;;;;;;6.70;1.80;;;11.30;1.00;11.40;100025.00;;;;5093249;28;20431;-82
2022/04/09 10:55:32;;;;;;;7.10;1.70;;;11.10;1.00;11.80;100009.00;;;;5092061;28;20716;-81
2022/04/09 10:58:10;;;;;;;4.80;1.80;;;11.20;1.00;12.00;100022.00;;;;5092435;28;20493;-81
2022/04/09 11:00:43;;;;;;;2.70;1.50;;;11.50;1.00;12.20;100027.00;;;;5091440;28;20439;-81
2022/04/09 11:03:33;;;;;;;8.03;1.80;;;11.90;1.00;12.30;100044.00;;;;5093958;28;20448;-81
2022/04/09 11:06:43;;;;;;;5.27;1.67;;;12.00;1.00;12.00;100033.00;;;;5085735;28;20479;-81
2022/04/09 11:09:11;;;;;;;4.40;1.70;;;11.80;1.00;11.70;100054.00;;;;5090612;28;20522;-82
2022/04/09 11:11:41;;;;;;;2.67;1.10;;;11.70;1.00;11.40;100066.00;;;;5091997;28;20443;-81
2022/04/09 11:14:09;;;;;;;3.33;1.20;;;11.20;1.00;11.00;100075.00;;;;5090485;28;20454;-83
2022/04/09 11:16:39;;;;;;;4.90;1.53;;;10.80;1.00;11.10;100080.00;;;;5091042;28;20523;-82
2022/04/09 11:19:08;;;;;;;6.10;1.37;;;10.80;1.00;11.10;100061.00;;;;5090666;28;20448;-80
2022/04/09 11:21:36;;;;;;;4.77;1.80;;;10.90;1.00;10.80;100060.00;;;;5114618;28;20514;-82
2022/04/09 11:24:07;;;;;;;4.83;1.67;;;10.60;1.00;11.00;100064.00;;;;5095235;28;20451;-81
2022/04/09 11:26:36;;;;;;;7.00;1.93;;;10.60;1.00;11.20;100069.00;;;;5080971;28;20514;-82
2022/04/09 11:29:11;;;;;;;2.70;1.20;;;10.80;1.00;11.30;100077.00;;;;5085387;28;20554;-81